createdAt,value
2023-02-19T00:00:17.004Z,99719.92
2023-02-19T00:03:05.736Z,99734.27
2023-02-19T00:05:35.966Z,99735.73
2023-02-19T00:08:05.069Z,99738.46
2023-02-19T00:10:33.857Z,99738.84
2023-02-19T00:13:04.811Z,99746.29
2023-02-19T00:15:34.071Z,99753.27
2023-02-19T00:18:02.973Z,99760.02
2023-02-19T00:20:31.827Z,99758.54
2023-02-19T00:23:00.636Z,99759.43
2023-02-19T00:25:29.471Z,99762.70
2023-02-19T00:27:58.188Z,99768.05
2023-02-19T00:30:27.078Z,99763.00
2023-02-19T00:32:55.652Z,99752.83
2023-02-19T00:35:24.596Z,99746.56
2023-02-19T00:37:59.382Z,99740.07
2023-02-19T00:40:28.037Z,99736.14
2023-02-19T00:42:56.907Z,99732.27
2023-02-19T00:45:25.757Z,99730.77
2023-02-19T00:47:54.525Z,99728.28
2023-02-19T00:50:23.473Z,99735.22
2023-02-19T00:52:52.170Z,99722.75
2023-02-19T00:55:20.971Z,99724.55
2023-02-19T00:57:49.663Z,99724.30
2023-02-19T01:00:18.557Z,99719.48
2023-02-19T01:02:47.515Z,99719.16
2023-02-19T01:05:16.313Z,99717.64
2023-02-19T01:07:45.145Z,99713.11
2023-02-19T01:10:14.033Z,99715.11
2023-02-19T01:12:43.029Z,99722.23
2023-02-19T01:15:11.905Z,99726.92
2023-02-19T01:17:40.683Z,99734.75
2023-02-19T01:20:10.254Z,99732.41
2023-02-19T01:22:38.927Z,99729.86
2023-02-19T01:25:08.381Z,99738.86
2023-02-19T01:27:36.998Z,99738.81
2023-02-19T01:30:06.271Z,99736.39
2023-02-19T01:32:34.963Z,99741.13
2023-02-19T01:35:03.747Z,99742.67
2023-02-19T01:37:32.402Z,99750.27
2023-02-19T01:40:01.089Z,99748.45
2023-02-19T01:42:29.847Z,99749.01
2023-02-19T01:45:30.392Z,99753.51
2023-02-19T01:48:34.291Z,99754.35
2023-02-19T01:51:11.376Z,99758.80
2023-02-19T01:53:46.539Z,99755.39
2023-02-19T01:56:19.129Z,99757.43
2023-02-19T01:58:48.390Z,99756.87
2023-02-19T02:01:17.151Z,99749.98
2023-02-19T02:03:49.168Z,99753.27
2023-02-19T02:06:34.569Z,99751.16
2023-02-19T02:09:21.804Z,99755.84
2023-02-19T02:11:53.383Z,99756.61
2023-02-19T02:14:29.536Z,99759.54
2023-02-19T02:17:20.354Z,99769.10
2023-02-19T02:20:15.439Z,99781.99
2023-02-19T02:22:49.424Z,99796.34
2023-02-19T02:25:26.699Z,99808.83
2023-02-19T02:28:21.953Z,99814.78
2023-02-19T02:31:02.980Z,99836.45
2023-02-19T02:33:47.533Z,99858.42
2023-02-19T02:36:25.004Z,99872.00
2023-02-19T02:38:55.649Z,99880.66
2023-02-19T02:41:27.007Z,99892.52
2023-02-19T02:43:56.156Z,99894.19
2023-02-19T02:46:35.797Z,99896.65
2023-02-19T02:49:10.614Z,99892.80
2023-02-19T02:51:47.097Z,99896.56
2023-02-19T02:54:47.035Z,99894.19
2023-02-19T02:57:17.397Z,99895.16
2023-02-19T02:59:49.610Z,99894.70
2023-02-19T03:02:26.417Z,99898.68
2023-02-19T03:05:28.252Z,99901.04
2023-02-19T03:08:38.350Z,99907.69
2023-02-19T03:11:29.102Z,99911.43
2023-02-19T03:14:29.518Z,99907.34
2023-02-19T03:17:35.119Z,99916.86
2023-02-19T03:20:09.843Z,99922.90
2023-02-19T03:22:40.927Z,99915.73
2023-02-19T03:25:37.532Z,99925.06
2023-02-19T03:28:11.169Z,99940.41
2023-02-19T03:30:47.964Z,99950.00
2023-02-19T03:33:22.497Z,99947.20
2023-02-19T03:36:05.568Z,99936.10
2023-02-19T03:38:44.812Z,99944.35
2023-02-19T03:41:26.292Z,99948.36
2023-02-19T03:44:30.809Z,99952.86
2023-02-19T03:47:13.920Z,99956.58
2023-02-19T03:50:28.530Z,99954.91
2023-02-19T03:53:18.805Z,99951.28
2023-02-19T03:56:38.422Z,99940.45
2023-02-19T03:59:43.738Z,99925.83
2023-02-19T04:02:20.440Z,99936.56
2023-02-19T04:04:56.677Z,99943.59
2023-02-19T04:07:27.638Z,99952.04
2023-02-19T04:09:56.848Z,99949.85
2023-02-19T04:12:25.827Z,99949.17
2023-02-19T04:15:06.862Z,99953.16
2023-02-19T04:17:59.814Z,99954.59
2023-02-19T04:20:32.648Z,99966.77
2023-02-19T04:23:01.299Z,99975.27
2023-02-19T04:25:31.398Z,99970.22
2023-02-19T04:28:00.488Z,99975.27
2023-02-19T04:30:29.436Z,99981.95
2023-02-19T04:32:58.177Z,99985.16
2023-02-19T04:35:26.854Z,99990.42
2023-02-19T04:37:55.373Z,99998.14
2023-02-19T04:40:23.992Z,99993.93
2023-02-19T04:42:53.439Z,99997.64
2023-02-19T04:45:22.009Z,100016.02
2023-02-19T04:47:50.590Z,100023.40
2023-02-19T04:50:19.288Z,100020.75
2023-02-19T04:52:47.888Z,100019.09
2023-02-19T04:55:16.757Z,100028.95
2023-02-19T04:57:45.424Z,100024.27
2023-02-19T05:00:14.679Z,100020.69
2023-02-19T05:02:43.219Z,100020.14
2023-02-19T05:05:11.858Z,100028.73
2023-02-19T05:07:40.379Z,100026.70
2023-02-19T05:10:09.175Z,100034.19
2023-02-19T05:12:37.872Z,100039.00
2023-02-19T05:15:06.732Z,100060.80
2023-02-19T05:17:35.751Z,100062.55
2023-02-19T05:20:04.743Z,100078.26
2023-02-19T05:22:33.324Z,100094.75
2023-02-19T05:25:02.098Z,100100.77
2023-02-19T05:27:31.770Z,100098.45
2023-02-19T05:30:00.571Z,100097.27
2023-02-19T05:32:29.276Z,100099.84
2023-02-19T05:34:57.870Z,100110.73
2023-02-19T05:37:26.417Z,100117.48
2023-02-19T05:39:54.960Z,100117.93
2023-02-19T05:42:23.603Z,100121.94
2023-02-19T05:44:52.438Z,100128.85
2023-02-19T05:47:21.023Z,100131.88
2023-02-19T05:49:49.692Z,100130.53
2023-02-19T05:52:18.349Z,100143.17
2023-02-19T05:54:46.983Z,100151.23
2023-02-19T05:57:15.592Z,100157.09
2023-02-19T05:59:44.236Z,100158.40
2023-02-19T06:02:12.932Z,100166.30
2023-02-19T06:04:41.686Z,100186.98
2023-02-19T06:07:10.316Z,100199.20
2023-02-19T06:09:38.880Z,100198.75
2023-02-19T06:12:08.293Z,100203.39
2023-02-19T06:14:37.020Z,100200.59
2023-02-19T06:17:05.565Z,100199.05
2023-02-19T06:19:34.168Z,100197.73
2023-02-19T06:22:02.933Z,100184.08
2023-02-19T06:24:31.779Z,100183.85
2023-02-19T06:27:00.508Z,100178.37
2023-02-19T06:29:29.241Z,100182.23
2023-02-19T06:31:58.175Z,100203.29
2023-02-19T06:34:27.178Z,100212.77
2023-02-19T06:36:57.816Z,100213.05
2023-02-19T06:39:27.720Z,100204.84
2023-02-19T06:41:57.849Z,100193.27
2023-02-19T06:44:26.483Z,100182.80
2023-02-19T06:46:56.171Z,100188.27
2023-02-19T06:49:24.744Z,100187.21
2023-02-19T06:51:53.568Z,100177.48
2023-02-19T06:54:22.194Z,100171.34
2023-02-19T06:56:50.749Z,100156.56
2023-02-19T06:59:19.388Z,100120.00
2023-02-19T07:01:48.089Z,100114.30
2023-02-19T07:04:16.961Z,100113.77
2023-02-19T07:06:45.754Z,100106.14
2023-02-19T07:09:14.459Z,100101.38
2023-02-19T07:11:43.090Z,100096.91
2023-02-19T07:14:16.843Z,100089.25
2023-02-19T07:16:47.549Z,100084.13
2023-02-19T07:19:16.221Z,100080.66
2023-02-19T07:21:44.789Z,100081.19
2023-02-19T07:24:13.514Z,100089.96
2023-02-19T07:26:42.672Z,100096.54
2023-02-19T07:29:11.241Z,100108.16
2023-02-19T07:31:40.059Z,100122.32
2023-02-19T07:34:08.868Z,100140.24
2023-02-19T07:36:37.873Z,100143.97
2023-02-19T07:39:09.117Z,100148.17
2023-02-19T07:41:38.899Z,100142.11
2023-02-19T07:44:07.890Z,100154.77
2023-02-19T07:46:36.574Z,100159.83
2023-02-19T07:49:07.316Z,100150.40
2023-02-19T07:51:36.033Z,100148.45
2023-02-19T07:54:04.688Z,100144.67
2023-02-19T07:56:33.351Z,100139.06
2023-02-19T07:59:01.989Z,100131.83
2023-02-19T08:02:29.663Z,100138.41
2023-02-19T08:04:58.420Z,100150.92
2023-02-19T08:07:35.491Z,100157.45
2023-02-19T08:10:24.301Z,100160.74
2023-02-19T08:13:19.105Z,100157.22
2023-02-19T08:15:47.693Z,100141.55
2023-02-19T08:18:17.552Z,100123.19
2023-02-19T08:20:46.439Z,100115.45
2023-02-19T08:23:15.393Z,100108.05
2023-02-19T08:25:44.042Z,100110.37
2023-02-19T08:28:13.245Z,100114.00
2023-02-19T08:30:45.481Z,100120.08
2023-02-19T08:33:17.758Z,100120.05
2023-02-19T08:35:47.123Z,100124.44
2023-02-19T08:38:18.830Z,100126.73
2023-02-19T08:40:47.393Z,100134.52
2023-02-19T08:43:17.815Z,100136.91
2023-02-19T08:45:52.589Z,100135.49
2023-02-19T08:48:21.432Z,100134.55
2023-02-19T08:51:04.039Z,100143.75
2023-02-19T08:53:33.201Z,100147.02
2023-02-19T08:56:13.736Z,100137.44
2023-02-19T08:58:43.045Z,100127.95
2023-02-19T09:01:18.787Z,100126.80
2023-02-19T09:03:47.689Z,100118.54
2023-02-19T09:06:20.158Z,100113.57
2023-02-19T09:08:49.054Z,100113.38
2023-02-19T09:11:17.817Z,100107.55
2023-02-19T09:13:46.603Z,100104.71
2023-02-19T09:16:15.241Z,100097.55
2023-02-19T09:18:46.043Z,100094.50
2023-02-19T09:21:14.709Z,100086.39
2023-02-19T09:23:43.359Z,100081.93
2023-02-19T09:26:14.093Z,100075.92
2023-02-19T09:28:43.309Z,100076.45
2023-02-19T09:31:16.464Z,100073.41
2023-02-19T09:33:47.677Z,100067.25
2023-02-19T09:36:17.288Z,100059.23
2023-02-19T09:38:46.091Z,100058.84
2023-02-19T09:41:26.531Z,100067.39
2023-02-19T09:43:55.935Z,100062.06
2023-02-19T09:46:46.451Z,100069.95
2023-02-19T09:49:25.717Z,100077.54
2023-02-19T09:52:04.491Z,100080.67
2023-02-19T09:54:34.345Z,100083.23
2023-02-19T09:57:04.706Z,100087.18
2023-02-19T10:00:04.777Z,100095.52
2023-02-19T10:02:33.658Z,100102.29
2023-02-19T10:05:04.040Z,100104.92
2023-02-19T10:07:40.472Z,100096.64
2023-02-19T10:10:14.540Z,100095.80
2023-02-19T10:12:56.193Z,100098.13
2023-02-19T10:15:38.387Z,100098.97
2023-02-19T10:18:09.510Z,100095.98
2023-02-19T10:20:40.568Z,100082.84
2023-02-19T10:23:14.363Z,100077.03
2023-02-19T10:25:58.069Z,100076.16
2023-02-19T10:28:34.701Z,100072.20
2023-02-19T10:31:12.079Z,100070.70
2023-02-19T10:33:51.940Z,100071.69
2023-02-19T10:36:39.160Z,100068.08
2023-02-19T10:39:22.930Z,100057.48
2023-02-19T10:41:54.718Z,100043.35
2023-02-19T10:44:28.222Z,100028.80
2023-02-19T10:47:00.142Z,100023.92
2023-02-19T10:49:39.927Z,100027.77
2023-02-19T10:52:27.051Z,100019.23
2023-02-19T10:55:17.815Z,100016.13
2023-02-19T10:57:47.243Z,100017.48
2023-02-19T11:00:15.661Z,100011.10
2023-02-19T11:02:45.301Z,100002.17
2023-02-19T11:05:16.825Z,99993.21
2023-02-19T11:07:56.229Z,99987.95
2023-02-19T11:10:33.757Z,99992.87
2023-02-19T11:13:06.563Z,99996.83
2023-02-19T11:15:37.499Z,99988.83
2023-02-19T11:18:33.161Z,99985.33
2023-02-19T11:21:05.358Z,99981.51
2023-02-19T11:23:47.343Z,99980.50
2023-02-19T11:26:31.255Z,99981.04
2023-02-19T11:29:11.382Z,99977.92
2023-02-19T11:31:40.026Z,99972.77
2023-02-19T11:34:14.646Z,99970.88
2023-02-19T11:36:43.061Z,99964.75
2023-02-19T11:39:17.502Z,99960.19
2023-02-19T11:42:10.247Z,99963.80
2023-02-19T11:44:56.851Z,99955.25
2023-02-19T11:48:05.689Z,99955.20
2023-02-19T11:51:10.849Z,99956.04
2023-02-19T11:53:49.839Z,99959.11
2023-02-19T11:56:34.142Z,99961.77
2023-02-19T11:59:20.246Z,99960.38
2023-02-19T12:01:54.468Z,99958.14
2023-02-19T12:04:56.970Z,99959.02
2023-02-19T12:08:09.673Z,99946.35
2023-02-19T12:11:25.265Z,99938.13
2023-02-19T12:14:08.403Z,99940.90
2023-02-19T12:16:58.418Z,99932.86
2023-02-19T12:20:11.544Z,99922.80
2023-02-19T12:22:58.984Z,99918.02
2023-02-19T12:25:51.456Z,99916.30
2023-02-19T12:28:40.328Z,99914.57
2023-02-19T12:31:49.404Z,99911.02
2023-02-19T12:34:24.301Z,99914.82
2023-02-19T12:37:24.918Z,99917.58
2023-02-19T12:40:25.046Z,99917.05
2023-02-19T12:43:24.628Z,99910.71
2023-02-19T12:46:04.545Z,99904.66
2023-02-19T12:48:53.718Z,99898.45
2023-02-19T12:51:57.682Z,99893.45
2023-02-19T12:54:44.597Z,99890.31
2023-02-19T12:57:23.148Z,99877.77
2023-02-19T13:00:10.552Z,99873.41
2023-02-19T13:02:54.167Z,99877.41
2023-02-19T13:05:48.347Z,99876.88
2023-02-19T13:08:48.830Z,99881.77
2023-02-19T13:11:31.475Z,99884.97
2023-02-19T13:14:44.259Z,99883.04
2023-02-19T13:17:51.532Z,99888.21
2023-02-19T13:20:39.357Z,99881.03
2023-02-19T13:23:55.398Z,99880.77
2023-02-19T13:26:48.802Z,99882.14
2023-02-19T13:29:53.374Z,99882.14
2023-02-19T13:32:32.197Z,99887.17
2023-02-19T13:35:39.279Z,99881.09
2023-02-19T13:38:14.903Z,99879.73
2023-02-19T13:40:55.163Z,99873.41
2023-02-19T13:43:38.922Z,99869.66
2023-02-19T13:46:11.012Z,99859.17
2023-02-19T13:48:41.996Z,99855.98
2023-02-19T13:51:13.676Z,99850.07
2023-02-19T13:53:42.664Z,99847.09
2023-02-19T13:56:35.651Z,99835.94
2023-02-19T13:59:21.925Z,99840.71
2023-02-19T14:01:51.605Z,99839.21
2023-02-19T14:04:50.377Z,99835.93
2023-02-19T14:07:18.831Z,99831.77
2023-02-19T14:09:48.168Z,99828.38
2023-02-19T14:12:16.668Z,99829.69
2023-02-19T14:14:53.395Z,99827.66
2023-02-19T14:17:42.202Z,99825.13
2023-02-19T14:20:11.732Z,99822.38
2023-02-19T14:22:51.645Z,99815.88
2023-02-19T14:25:30.618Z,99809.60
2023-02-19T14:28:15.072Z,99806.55
2023-02-19T14:30:57.235Z,99804.23
2023-02-19T14:33:36.225Z,99803.75
2023-02-19T14:36:37.894Z,99804.52
2023-02-19T14:39:12.810Z,99811.52
2023-02-19T14:41:46.403Z,99805.45
2023-02-19T14:44:25.095Z,99795.50
2023-02-19T14:47:23.280Z,99792.52
2023-02-19T14:49:59.265Z,99792.23
2023-02-19T14:52:44.524Z,99793.80
2023-02-19T14:55:32.987Z,99786.59
2023-02-19T14:58:07.921Z,99783.59
2023-02-19T15:00:42.140Z,99782.00
2023-02-19T15:03:35.404Z,99782.05
2023-02-19T15:06:16.578Z,99777.64
2023-02-19T15:08:52.745Z,99767.86
2023-02-19T15:11:26.352Z,99764.28
2023-02-19T15:14:02.388Z,99763.52
2023-02-19T15:16:35.904Z,99758.06
2023-02-19T15:19:09.815Z,99766.55
2023-02-19T15:21:46.652Z,99768.84
2023-02-19T15:24:17.555Z,99768.50
2023-02-19T15:26:54.406Z,99767.12
2023-02-19T15:29:27.085Z,99759.75
2023-02-19T15:32:01.223Z,99762.42
2023-02-19T15:34:32.772Z,99764.55
2023-02-19T15:37:08.407Z,99762.56
2023-02-19T15:39:41.344Z,99757.06
2023-02-19T15:42:16.935Z,99759.39
2023-02-19T15:44:49.875Z,99755.05
2023-02-19T15:47:34.885Z,99747.08
2023-02-19T15:50:19.052Z,99747.49
2023-02-19T15:53:23.834Z,99746.27
2023-02-19T15:56:18.162Z,99739.34
2023-02-19T15:58:53.234Z,99740.41
2023-02-19T16:01:29.704Z,99741.70
2023-02-19T16:03:59.042Z,99742.23
2023-02-19T16:06:29.059Z,99740.80
2023-02-19T16:09:06.046Z,99738.40
2023-02-19T16:11:55.581Z,99734.31
2023-02-19T16:14:25.640Z,99738.77
2023-02-19T16:17:16.712Z,99736.91
2023-02-19T16:20:02.411Z,99739.58
2023-02-19T16:22:40.733Z,99738.08
2023-02-19T16:25:30.762Z,99731.37
2023-02-19T16:27:59.658Z,99737.16
2023-02-19T16:30:34.165Z,99741.70
2023-02-19T16:33:22.679Z,99745.55
2023-02-19T16:35:52.581Z,99746.09
2023-02-19T16:38:21.627Z,99747.50
2023-02-19T16:40:54.305Z,99751.92
2023-02-19T16:43:31.592Z,99750.88
2023-02-19T16:46:01.807Z,99752.05
2023-02-19T16:48:30.327Z,99757.70
2023-02-19T16:50:59.692Z,99751.31
2023-02-19T16:53:29.472Z,99747.29
2023-02-19T16:55:58.011Z,99747.05
2023-02-19T16:58:27.151Z,99740.98
2023-02-19T17:00:56.286Z,99739.27
2023-02-19T17:03:25.955Z,99741.28
2023-02-19T17:05:54.595Z,99738.61
2023-02-19T17:08:34.238Z,99743.02
2023-02-19T17:11:06.767Z,99740.29
2023-02-19T17:13:35.308Z,99744.33
2023-02-19T17:16:04.402Z,99742.39
2023-02-19T17:18:33.108Z,99745.84
2023-02-19T17:21:23.073Z,99743.91
2023-02-19T17:23:52.727Z,99744.77
2023-02-19T17:26:28.238Z,99748.05
2023-02-19T17:29:02.856Z,99750.40
2023-02-19T17:31:31.900Z,99751.85
2023-02-19T17:34:00.596Z,99744.61
2023-02-19T17:36:32.605Z,99743.61
2023-02-19T17:39:04.134Z,99746.48
2023-02-19T17:41:33.192Z,99748.13
2023-02-19T17:44:01.699Z,99752.77
2023-02-19T17:46:30.189Z,99758.73
2023-02-19T17:48:58.768Z,99763.13
2023-02-19T17:51:27.247Z,99764.23
2023-02-19T17:53:55.768Z,99764.36
2023-02-19T17:56:26.722Z,99765.95
2023-02-19T17:58:56.950Z,99775.09
2023-02-19T18:01:25.478Z,99772.48
2023-02-19T18:03:54.009Z,99786.67
2023-02-19T18:06:22.593Z,99820.04
2023-02-19T18:08:53.297Z,99848.45
2023-02-19T18:11:23.066Z,99864.98
2023-02-19T18:13:52.491Z,99865.19
2023-02-19T18:16:22.402Z,99861.70
2023-02-19T18:18:51.012Z,99858.42
2023-02-19T18:21:19.646Z,99854.08
2023-02-19T18:23:48.240Z,99860.86
2023-02-19T18:26:21.613Z,99861.66
2023-02-19T18:28:50.136Z,99866.73
2023-02-19T18:31:18.913Z,99880.88
2023-02-19T18:33:47.634Z,99888.14
2023-02-19T18:36:16.454Z,99888.40
2023-02-19T18:38:45.798Z,99888.75
2023-02-19T18:41:14.842Z,99892.15
2023-02-19T18:43:43.566Z,99894.88
2023-02-19T18:46:12.377Z,99898.52
2023-02-19T18:48:41.279Z,99897.52
2023-02-19T18:51:11.658Z,99907.99
2023-02-19T18:53:43.210Z,99912.15
2023-02-19T18:56:11.829Z,99913.98
2023-02-19T18:58:40.539Z,99920.30
2023-02-19T19:01:09.549Z,99930.14
2023-02-19T19:03:38.425Z,99943.03
2023-02-19T19:06:07.464Z,99957.39
2023-02-19T19:08:36.100Z,99970.53
2023-02-19T19:11:04.818Z,99984.89
2023-02-19T19:13:33.745Z,99997.97
2023-02-19T19:16:02.533Z,100007.91
2023-02-19T19:18:32.380Z,100021.83
2023-02-19T19:21:03.710Z,100028.57
2023-02-19T19:23:32.760Z,100033.89
2023-02-19T19:26:07.276Z,100043.59
2023-02-19T19:28:36.743Z,100047.81
2023-02-19T19:31:05.944Z,100047.36
2023-02-19T19:33:34.732Z,100065.75
2023-02-19T19:36:06.946Z,100072.88
2023-02-19T19:38:35.905Z,100077.30
2023-02-19T19:41:06.415Z,100084.10
2023-02-19T19:43:35.239Z,100095.31
2023-02-19T19:46:04.526Z,100096.82
2023-02-19T19:48:33.429Z,100109.05
2023-02-19T19:51:02.303Z,100113.06
2023-02-19T19:53:32.218Z,100125.17
2023-02-19T19:56:01.907Z,100143.65
2023-02-19T19:58:30.529Z,100152.27
2023-02-19T20:01:01.854Z,100162.02
2023-02-19T20:03:32.788Z,100164.11
2023-02-19T20:06:02.670Z,100171.73
2023-02-19T20:08:31.631Z,100184.94
2023-02-19T20:11:00.234Z,100200.65
2023-02-19T20:13:30.684Z,100206.75
2023-02-19T20:15:59.432Z,100206.23
2023-02-19T20:18:28.455Z,100206.72
2023-02-19T20:20:57.031Z,100216.23
2023-02-19T20:23:27.370Z,100223.80
2023-02-19T20:25:57.764Z,100234.40
2023-02-19T20:28:26.386Z,100235.19
2023-02-19T20:30:55.300Z,100237.83
2023-02-19T20:33:23.955Z,100239.46
2023-02-19T20:35:52.480Z,100246.84
2023-02-19T20:38:21.138Z,100252.81
2023-02-19T20:40:49.728Z,100260.38
2023-02-19T20:43:18.256Z,100267.50
2023-02-19T20:45:47.935Z,100272.41
2023-02-19T20:48:17.871Z,100276.22
2023-02-19T20:50:46.397Z,100277.81
2023-02-19T20:53:15.170Z,100289.40
2023-02-19T20:55:43.732Z,100298.25
2023-02-19T20:58:12.726Z,100310.27
2023-02-19T21:00:41.374Z,100318.17
2023-02-19T21:03:11.839Z,100321.96
2023-02-19T21:05:41.601Z,100324.98
2023-02-19T21:08:11.833Z,100332.24
2023-02-19T21:10:40.722Z,100345.02
2023-02-19T21:13:09.217Z,100341.44
2023-02-19T21:15:37.760Z,100349.54
2023-02-19T21:18:06.447Z,100352.92
2023-02-19T21:20:35.148Z,100351.27
2023-02-19T21:23:04.155Z,100356.67
2023-02-19T21:25:33.333Z,100361.35
2023-02-19T21:28:01.845Z,100367.77
2023-02-19T21:30:30.390Z,100369.73
2023-02-19T21:32:58.926Z,100362.56
2023-02-19T21:35:28.102Z,100369.45
2023-02-19T21:37:56.661Z,100379.09
2023-02-19T21:40:25.959Z,100386.78
2023-02-19T21:42:54.715Z,100381.73
2023-02-19T21:45:23.536Z,100397.39
2023-02-19T21:47:52.353Z,100406.09
2023-02-19T21:50:22.724Z,100408.05
2023-02-19T21:52:51.273Z,100408.33
2023-02-19T21:55:20.670Z,100410.70
2023-02-19T21:57:49.271Z,100411.03
2023-02-19T22:00:18.380Z,100419.47
2023-02-19T22:02:47.223Z,100423.69
2023-02-19T22:05:16.520Z,100427.30
2023-02-19T22:07:45.062Z,100436.62
2023-02-19T22:10:15.447Z,100438.30
2023-02-19T22:12:44.016Z,100433.33
2023-02-19T22:15:13.034Z,100435.92
2023-02-19T22:17:41.608Z,100442.21
2023-02-19T22:20:10.419Z,100442.56
2023-02-19T22:22:40.575Z,100449.02
2023-02-19T22:25:09.238Z,100451.73
2023-02-19T22:27:37.800Z,100451.54
2023-02-19T22:30:07.363Z,100458.08
2023-02-19T22:32:36.150Z,100457.50
2023-02-19T22:35:04.842Z,100459.51
2023-02-19T22:37:33.385Z,100463.77
2023-02-19T22:40:02.079Z,100464.05
2023-02-19T22:42:30.531Z,100466.20
2023-02-19T22:44:59.007Z,100463.47
2023-02-19T22:47:27.583Z,100462.06
2023-02-19T22:49:56.032Z,100458.96
2023-02-19T22:52:28.175Z,100458.30
2023-02-19T22:54:56.884Z,100462.73
2023-02-19T22:57:25.708Z,100466.81
2023-02-19T22:59:54.230Z,100466.29
2023-02-19T23:02:22.751Z,100467.98
2023-02-19T23:04:51.370Z,100465.36
2023-02-19T23:07:20.053Z,100461.83
2023-02-19T23:09:49.119Z,100457.90
2023-02-19T23:12:17.568Z,100458.31
2023-02-19T23:14:47.100Z,100453.14
2023-02-19T23:17:15.544Z,100454.02
2023-02-19T23:19:44.134Z,100454.94
2023-02-19T23:22:12.781Z,100458.22
2023-02-19T23:24:41.226Z,100460.56
2023-02-19T23:27:09.678Z,100467.23
2023-02-19T23:29:38.198Z,100473.20
2023-02-19T23:32:06.757Z,100472.15
2023-02-19T23:34:35.423Z,100469.67
2023-02-19T23:37:03.941Z,100473.17
2023-02-19T23:39:32.855Z,100477.30
2023-02-19T23:42:01.594Z,100480.20
2023-02-19T23:44:30.176Z,100477.06
2023-02-19T23:46:58.828Z,100475.78
2023-02-19T23:49:27.411Z,100476.85
2023-02-19T23:51:56.211Z,100486.39
2023-02-19T23:54:24.908Z,100486.81
2023-02-19T23:56:53.546Z,100493.77
2023-02-19T23:59:22.121Z,100487.45
